Station: Busselton Airport  

  Atmospheric Gas Attenuation - ITU Rec 676-11   ----------------- dB/100km -----------------
Date Time Temp RH % AH g/m3 Dew Point Wind Direction Speed kph Gust kph Barometer mB Rainfall Since 9am 24GHz 47GHz 76GHz 122GHz 134GHz 241GHz
04/05 04:10 8.2 100 8.38 8.2 7 7 1027.8 0 19.4 27.8 42.5 111.3 104.0 357.0
04/05 04:00 7.7 100 8.11 7.7 6 7 1027.8 0 18.8 27.5 41.6 108.9 100.8 345.8
04/05 03:50 8.2 100 8.38 8.2 6 6 1027.9 0 19.4 27.8 42.5 111.3 104.0 357.0
04/05 03:40 8.7 100 8.65 8.7 7 7 1027.9 0 19.9 28.1 43.4 113.7 107.1 368.2
04/05 03:30 8.2 99 8.29 8.1 7 9 1027.8 0 19.2 27.6 42.1 110.3 102.7 352.5
04/05 03:20 8.4 99 8.4 8.3 7 7 1028 0 19.4 27.8 42.5 111.3 104.0 357.1
04/05 03:10 8.4 99 8.4 8.3 7 7 1028 0 19.4 27.8 42.5 111.3 104.0 357.1
04/05 03:00 8.5 99 8.46 8.4 7 7 1027.9 0 19.5 27.8 42.7 111.8 104.7 359.6
04/05 02:50 8 99 8.19 7.9 7 7 1028 0 19.0 27.5 41.8 109.4 101.5 348.5
04/05 02:40 7.8 99 8.08 7.7 7 7 1028 0 18.7 27.4 41.4 108.4 100.2 343.9
04/05 02:30 7.8 99 8.08 7.7 6 7 1027.9 0 18.7 27.4 41.4 108.4 100.2 343.8
04/05 02:20 9 99 8.73 8.9 6 6 1028.1 0 20.1 28.2 43.6 114.2 107.9 370.8
04/05 02:10 9.6 99 9.07 9.5 6 6 1028 0 20.8 28.6 44.7 117.3 111.9 384.9
04/05 02:00 9.5 99 9.01 9.4 4 6 1027.8 0 20.7 28.5 44.5 116.7 111.2 382.4
04/05 01:50 8.6 99 8.51 8.5 6 6 1027.8 0 19.6 27.9 42.8 112.2 105.3 361.6
04/05 01:40 9 99 8.73 8.9 7 9 1027.7 0 20.1 28.1 43.5 114.2 107.8 370.7
04/05 01:30 9.5 99 9.01 9.4 9 11 1027.8 0 20.7 28.5 44.5 116.7 111.2 382.4
04/05 01:20 9.9 99 9.25 9.8 9 9 1027.9 0 21.2 28.8 45.3 118.9 114.0 392.5
04/05 01:10 10.3 99 9.48 10.1 9 9 1027.9 0 21.6 29.0 46.1 121.0 116.7 402.0
04/05 01:00 10.5 99 9.6 10.3 11 11 1027.7 0 21.9 29.2 46.5 122.1 118.2 407.0
04/05 00:50 11 99 9.91 10.8 9 11 1027.8 0 22.5 29.6 47.6 124.9 121.9 420.0
04/05 00:40 11.3 99 10.1 11.1 7 9 1027.6 0 22.9 29.8 48.2 126.7 124.1 428.0
04/05 00:30 11.3 98 10 11 7 9 1027.5 0 22.7 29.6 47.8 125.5 122.7 422.9
04/05 00:20 11.4 97 9.96 10.9 7 9 1027.5 0 22.6 29.5 47.5 124.8 121.9 420.3
04/05 00:10 11.9 96 10.17 11.3 7 9 1027.6 0 23.0 29.7 48.2 126.5 124.2 428.2
04/05 00:00 12.4 97 10.6 11.9 7 9 1027.5 0 23.9 30.3 49.7 130.7 129.6 447.1
03/05 23:50 12.1 96 10.3 11.5 6 6 1027.8 0 23.3 29.9 48.6 127.7 125.7 433.7
03/05 23:40 12.2 95 10.25 11.4 7 7 1027.8 0 23.2 29.8 48.3 127.0 124.9 430.6
03/05 23:30 12.4 94 10.27 11.5 9 13 1027.7 0 23.2 29.7 48.3 126.9 124.8 430.5
03/05 23:20 12.5 93 10.23 11.4 9 11 1027.9 0 23.1 29.6 48.1 126.3 124.1 428.0
03/05 23:10 12.4 92 10.05 11.1 9 9 1027.9 0 22.7 29.3 47.3 124.3 121.7 419.5
03/05 23:00 12.6 90 9.96 11 6 11 1027.8 0 22.5 29.1 46.8 122.9 120.1 413.9
03/05 22:50 12.8 89 9.97 11 9 9 1028 0 22.6 29.1 46.7 122.8 119.9 413.4
03/05 22:40 13.2 88 10.1 11.3 11 13 1028 0 22.8 29.2 47.1 123.6 121.1 417.7
03/05 22:30 13.5 88 10.29 11.6 15 19 1027.9 0 23.2 29.4 47.7 125.3 123.3 425.5
03/05 22:20 13.7 88 10.42 11.7 17 19 1028 0 23.5 29.6 48.2 126.5 124.9 430.8
03/05 22:10 13.8 87 10.37 11.7 15 19 1028 0 23.4 29.4 47.9 125.8 124.0 427.8
03/05 22:00 13.9 86 10.31 11.6 17 22 1027.8 0 23.2 29.3 47.5 124.9 123.0 424.2
03/05 21:50 13.8 86 10.25 11.5 17 20 1027.9 0 23.1 29.2 47.4 124.4 122.3 421.8
03/05 21:40 14.1 85 10.32 11.6 17 19 1027.9 0 23.2 29.2 47.5 124.7 122.8 423.6
03/05 21:30 14.1 85 10.32 11.6 17 20 1027.7 0 23.2 29.2 47.5 124.7 122.8 423.6
03/05 21:20 13.9 84 10.07 11.2 17 17 1027.7 0 22.7 28.9 46.5 122.1 119.6 412.4
03/05 21:10 13.9 84 10.07 11.2 17 20 1027.6 0 22.7 28.9 46.5 122.1 119.6 412.3
03/05 21:00 14 84 10.13 11.3 17 20 1027.5 0 22.8 28.9 46.7 122.7 120.2 414.7
03/05 20:50 14.1 83 10.07 11.3 17 17 1027.5 0 22.7 28.8 46.4 121.8 119.2 411.2
03/05 20:40 14.3 82 10.07 11.3 17 19 1027.5 0 22.7 28.7 46.3 121.5 118.9 410.2
03/05 20:30 14.5 81 10.07 11.3 19 24 1027.4 0 22.7 28.7 46.1 121.2 118.6 409.1
03/05 20:20 14.6 80 10.01 11.2 17 19 1027.5 0 22.5 28.5 45.8 120.4 117.6 405.7
03/05 20:10 14.8 79 10.01 11.2 19 26 1027.5 0 22.5 28.5 45.7 120.0 117.3 404.7
03/05 20:00 14.9 78 9.94 11.1 17 20 1027.4 0 22.4 28.3 45.4 119.1 116.2 400.7
03/05 19:50 15 78 10 11.2 15 17 1027.5 0 22.5 28.4 45.6 119.6 116.9 403.1
03/05 19:40 15.4 77 10.12 11.4 17 19 1027.4 0 22.7 28.5 45.8 120.3 117.9 406.8
03/05 19:30 15.7 76 10.17 11.5 17 22 1027.2 0 22.8 28.4 45.8 120.4 118.1 407.6
03/05 19:20 16.1 75 10.28 11.7 19 24 1027.1 0 23.0 28.5 46.1 121.0 119.0 410.7
03/05 19:10 16.2 75 10.34 11.8 17 19 1026.9 0 23.2 28.5 46.3 121.5 119.6 413.0
03/05 19:00 16.3 75 10.4 11.9 17 22 1026.9 0 23.3 28.6 46.4 122.0 120.3 415.3
03/05 18:50 16.4 75 10.47 12 19 20 1026.8 0 23.4 28.7 46.7 122.6 121.1 418.1
03/05 18:40 16.4 75 10.47 12 19 20 1026.7 0 23.4 28.7 46.7 122.6 121.1 418.1
03/05 18:30 16.5 75 10.53 12.1 17 19 1026.6 0 23.5 28.8 46.9 123.1 121.8 420.4
03/05 18:20 16.6 76 10.74 12.4 19 22 1026.6 0 24.0 29.1 47.7 125.3 124.5 430.0
03/05 18:10 16.9 75 10.79 12.4 15 15 1026.5 0 24.1 29.1 47.7 125.4 124.7 430.7
03/05 18:00 17.1 74 10.77 12.4 19 22 1026.4 0 24.0 29.0 47.5 124.8 124.1 428.6
03/05 17:50 17.3 73 10.75 12.4 15 17 1026.2 0 24.0 28.9 47.3 124.3 123.5 426.5
03/05 17:40 17.6 69 10.35 11.8 17 20 1026.1 0 23.1 28.1 45.4 119.4 117.6 405.9
03/05 17:30 17.7 68 10.26 11.7 9 11 1025.9 0 22.9 27.9 45.0 118.2 116.2 401.1
03/05 17:20 17.8 68 10.32 11.8 11 11 1025.8 0 23.0 28.0 45.2 118.7 116.8 403.4
03/05 17:10 17.9 68 10.38 11.9 11 11 1025.7 0 23.1 28.0 45.4 119.2 117.5 405.6
03/05 17:00 18.1 68 10.51 12.1 9 13 1025.5 0 23.4 28.2 45.8 120.3 118.9 410.6
03/05 16:50 18 66 10.14 11.6 11 13 1025.5 0 22.6 27.6 44.3 116.4 114.1 393.9
03/05 16:40 18.6 63 10.03 11.4 13 15 1025.5 0 22.4 27.2 43.6 114.4 111.8 385.8
03/05 16:30 19.6 59 9.96 11.4 15 22 1025.4 0 22.2 26.8 42.7 112.2 109.4 377.8
03/05 16:20 20 59 10.2 11.7 9 11 1025.4 0 22.6 27.1 43.5 114.2 112.0 386.7
03/05 16:10 19.9 60 10.31 11.9 11 11 1025.5 0 22.9 27.3 44.0 115.5 113.6 392.2
03/05 16:00 19.2 60 9.89 11.3 13 17 1025.5 0 22.0 26.8 42.7 112.0 109.1 376.6
03/05 15:50 19.5 58 9.73 11 11 13 1025.5 0 21.7 26.5 41.9 110.0 106.6 367.9
03/05 15:40 19.5 57 9.57 10.8 9 9 1025.5 0 21.3 26.2 41.3 108.3 104.6 360.8
03/05 15:30 19.7 59 10.02 11.5 9 13 1025.5 0 22.3 26.9 42.9 112.7 110.1 380.0
03/05 15:20 19.8 58 9.91 11.3 9 11 1025.5 0 22.0 26.7 42.4 111.4 108.5 374.6
03/05 15:10 19.1 59 9.67 10.9 11 13 1025.5 0 21.6 26.5 41.9 109.9 106.4 367.1
03/05 15:00 19.2 59 9.73 11 13 20 1025.5 0 21.7 26.6 42.1 110.4 107.0 369.3
03/05 14:50 19.5 58 9.73 11 17 19 1025.5 0 21.7 26.5 41.9 110.0 106.6 367.9
03/05 14:40 19.3 58 9.62 10.8 13 15 1025.5 0 21.5 26.4 41.6 109.1 105.5 363.9
03/05 14:30 19.1 62 10.16 11.7 9 13 1025.5 0 22.6 27.3 43.8 115.0 112.8 389.3
03/05 14:20 19 60 9.78 11.1 7 9 1025.5 0 21.8 26.7 42.4 111.2 108.0 372.5
03/05 14:10 19.3 59 9.79 11.1 6 6 1025.6 0 21.8 26.6 42.2 110.9 107.7 371.6
03/05 14:00 19.1 59 9.67 10.9 11 19 1025.6 0 21.6 26.5 41.9 109.9 106.4 367.1
03/05 13:50 18.6 61 9.71 10.9 15 17 1025.7 0 21.7 26.7 42.3 111.0 107.6 371.3
03/05 13:40 18.9 61 9.88 11.2 9 11 1025.7 0 22.0 26.9 42.8 112.4 109.4 377.6
03/05 13:30 19.3 63 10.45 12.1 13 20 1025.7 0 23.2 27.7 44.9 117.9 116.3 401.7
03/05 13:20 18.5 65 10.28 11.8 13 13 1025.9 0 22.9 27.7 44.6 117.2 115.3 398.0
03/05 13:10 18.1 64 9.89 11.2 15 17 1026 0 22.1 27.2 43.3 113.7 110.7 382.0
03/05 13:00 18.4 62 9.75 11 15 20 1026.1 0 21.8 26.9 42.6 111.8 108.5 374.2
03/05 12:50 18.7 61 9.77 11 17 20 1026.2 0 21.8 26.8 42.5 111.6 108.3 373.7
03/05 12:40 18.4 62 9.75 11 11 15 1026.4 0 21.8 26.9 42.6 111.8 108.5 374.3
03/05 12:30 18.1 66 10.2 11.7 11 17 1026.5 0 22.8 27.7 44.6 117.0 114.8 396.5
03/05 12:20 17.5 66 9.84 11.1 15 17 1026.7 0 22.0 27.3 43.5 114.1 111.0 382.8
03/05 12:10 17.6 69 10.35 11.8 15 19 1026.9 0 23.1 28.1 45.5 119.5 117.6 406.1
03/05 12:00 17.4 70 10.37 11.9 11 15 1027 0 23.1 28.2 45.7 120.0 118.2 408.2
03/05 11:50 17 69 9.98 11.3 15 15 1027.1 0 22.3 27.7 44.3 116.4 113.6 391.9
03/05 11:40 17.2 69 10.1 11.5 15 17 1027.2 0 22.6 27.8 44.7 117.4 114.9 396.5

Last Refresh: 04-May-2026 05:49:43

Bureau of Meteorology